Time;durP1;ratioP1;P1;durP2;ratioP2;P2;SDS_P1;SDS_P2;PMS_P1;PMS_P2;Temp;Humidity;BMP_temperature;BMP_pressure;BME280_temperature;BME280_humidity;BME280_pressure;Samples;Min_cycle;Max_cycle;Signal;HPM_P1;HPM_P2
2023/09/29 00:00:57;;;;;;;26.95;25.98;;;17.20;99.90;;;;;;5052040;28;20247;-68
2023/09/29 00:03:24;;;;;;;24.13;23.23;;;17.20;99.90;;;;;;5049703;28;20299;-68
2023/09/29 00:05:51;;;;;;;26.38;25.48;;;17.20;99.90;;;;;;5049426;28;20231;-67
2023/09/29 00:08:22;;;;;;;24.30;23.48;;;17.20;99.90;;;;;;5050031;28;20208;-68
2023/09/29 00:10:50;;;;;;;26.57;25.67;;;17.10;99.90;;;;;;5052874;28;20223;-66
2023/09/29 00:13:18;;;;;;;23.88;23.05;;;17.10;99.90;;;;;;5049901;28;20212;-67
2023/09/29 00:15:45;;;;;;;24.58;23.67;;;17.10;99.90;;;;;;5069238;28;20227;-66
2023/09/29 00:18:12;;;;;;;26.00;25.10;;;17.10;99.90;;;;;;5069636;28;20203;-69
2023/09/29 00:20:38;;;;;;;22.83;22.02;;;17.00;99.90;;;;;;5068748;28;20229;-68
2023/09/29 00:23:05;;;;;;;28.95;27.85;;;17.00;99.90;;;;;;5069436;28;20210;-65
2023/09/29 00:25:32;;;;;;;22.95;22.15;;;17.10;99.90;;;;;;5069392;28;20287;-69
2023/09/29 00:28:00;;;;;;;30.95;29.80;;;17.00;99.90;;;;;;5065452;28;20239;-65
2023/09/29 00:30:28;;;;;;;30.23;29.13;;;17.00;99.90;;;;;;5068609;28;20681;-67
2023/09/29 00:32:55;;;;;;;27.73;26.73;;;17.00;99.90;;;;;;5071976;28;20218;-69
2023/09/29 00:35:27;;;;;;;24.83;23.98;;;17.00;99.90;;;;;;5072373;28;20227;-66
2023/09/29 00:37:54;;;;;;;28.15;27.15;;;17.00;99.90;;;;;;5072180;28;20203;-67
2023/09/29 00:40:22;;;;;;;30.92;29.83;;;17.00;99.90;;;;;;5060728;28;20283;-65
2023/09/29 00:42:49;;;;;;;26.60;25.65;;;17.10;99.90;;;;;;5068639;28;20253;-68
2023/09/29 00:45:22;;;;;;;24.65;23.75;;;17.00;99.90;;;;;;5070049;28;20215;-66
2023/09/29 00:47:51;;;;;;;28.05;27.05;;;16.90;99.90;;;;;;5069396;28;20239;-67
2023/09/29 00:50:20;;;;;;;32.47;31.15;;;17.10;99.90;;;;;;5066914;28;20218;-68
2023/09/29 00:52:48;;;;;;;27.83;26.85;;;16.90;99.90;;;;;;5073201;28;20211;-69
2023/09/29 00:55:17;;;;;;;25.77;24.88;;;17.00;99.90;;;;;;5074561;28;20223;-70
2023/09/29 00:57:47;;;;;;;27.65;26.65;;;16.90;99.90;;;;;;5071683;28;20214;-67
2023/09/29 01:00:21;;;;;;;26.77;25.88;;;16.90;99.90;;;;;;5071433;28;20238;-66
2023/09/29 01:02:49;;;;;;;24.48;23.65;;;16.90;99.90;;;;;;5077507;28;20203;-67
2023/09/29 01:05:16;;;;;;;30.02;28.88;;;16.80;99.90;;;;;;5066254;28;20202;-66
2023/09/29 01:07:47;;;;;;;26.20;25.30;;;16.80;99.90;;;;;;5073263;28;20219;-66
2023/09/29 01:10:14;;;;;;;23.92;23.13;;;16.80;99.90;;;;;;5068813;28;20214;-66
2023/09/29 01:12:41;;;;;;;23.30;22.50;;;16.80;99.90;;;;;;5068538;28;20227;-68
2023/09/29 01:15:12;;;;;;;24.83;23.92;;;16.70;99.90;;;;;;5073724;28;20235;-69
2023/09/29 01:17:39;;;;;;;25.50;24.48;;;16.60;99.90;;;;;;5086703;28;20207;-67
2023/09/29 01:20:15;;;;;;;25.73;24.83;;;16.60;99.90;;;;;;5090443;28;20234;-71
2023/09/29 01:22:46;;;;;;;22.88;22.08;;;16.60;99.90;;;;;;5092756;28;20207;-65
2023/09/29 01:25:15;;;;;;;26.63;25.63;;;16.60;99.90;;;;;;5090637;28;20239;-67
2023/09/29 01:27:42;;;;;;;25.50;24.60;;;16.60;99.90;;;;;;5072110;28;20276;-69
2023/09/29 01:30:10;;;;;;;26.23;25.33;;;16.60;99.90;;;;;;5071788;28;20216;-67
2023/09/29 01:32:37;;;;;;;25.25;24.35;;;16.60;99.90;;;;;;5072431;28;20204;-67
2023/09/29 01:35:07;;;;;;;27.80;26.80;;;16.70;99.90;;;;;;5071013;28;20911;-67
2023/09/29 01:37:35;;;;;;;25.67;24.77;;;16.60;99.90;;;;;;5072229;28;20207;-67
2023/09/29 01:40:02;;;;;;;23.92;23.13;;;16.70;99.90;;;;;;5072465;28;20302;-67
2023/09/29 01:42:30;;;;;;;24.33;23.50;;;16.70;99.90;;;;;;5073380;28;20227;-66
2023/09/29 01:44:57;;;;;;;25.63;24.73;;;16.60;99.90;;;;;;5075812;28;20208;-69
2023/09/29 01:47:24;;;;;;;24.93;24.07;;;16.60;99.90;;;;;;5075966;28;20207;-68
2023/09/29 01:49:51;;;;;;;24.17;23.37;;;16.60;99.90;;;;;;5080000;28;20223;-64
2023/09/29 01:52:18;;;;;;;24.75;23.85;;;16.70;99.90;;;;;;5080348;28;20234;-67
2023/09/29 01:54:45;;;;;;;26.03;25.13;;;16.70;99.90;;;;;;5080030;28;20235;-67
2023/09/29 01:57:12;;;;;;;18.27;17.63;;;16.70;99.90;;;;;;5080502;28;20238;-65
2023/09/29 01:59:40;;;;;;;23.25;22.42;;;16.70;99.90;;;;;;5075878;28;20203;-68
2023/09/29 02:02:07;;;;;;;24.13;23.33;;;16.70;99.90;;;;;;5072868;28;20295;-67
2023/09/29 02:04:34;;;;;;;25.30;24.40;;;16.70;99.90;;;;;;5071901;28;20301;-68
2023/09/29 02:07:01;;;;;;;26.70;25.73;;;16.70;99.90;;;;;;5069637;28;20234;-67
2023/09/29 02:09:28;;;;;;;26.55;25.55;;;16.80;99.90;;;;;;5071043;28;20210;-68
2023/09/29 02:11:55;;;;;;;26.23;25.33;;;16.70;99.90;;;;;;5071582;28;20254;-67
2023/09/29 02:14:21;;;;;;;24.98;24.08;;;16.80;99.90;;;;;;5071396;28;20218;-64
2023/09/29 02:16:50;;;;;;;22.07;21.27;;;16.90;99.90;;;;;;5070954;28;20231;-67
2023/09/29 02:19:17;;;;;;;20.92;20.23;;;16.90;99.90;;;;;;5071241;28;20199;-66
2023/09/29 02:21:45;;;;;;;22.55;21.65;;;16.90;99.90;;;;;;5071311;28;20322;-68
2023/09/29 02:24:12;;;;;;;18.88;18.23;;;16.90;99.90;;;;;;5071329;28;20974;-68
2023/09/29 02:26:40;;;;;;;26.33;25.35;;;17.00;99.90;;;;;;5071012;28;20219;-66
2023/09/29 02:29:07;;;;;;;28.10;27.05;;;17.00;99.90;;;;;;5070711;28;20211;-67
2023/09/29 02:31:36;;;;;;;24.83;23.97;;;17.10;99.90;;;;;;5071017;28;20238;-66
2023/09/29 02:34:04;;;;;;;23.33;22.52;;;17.10;99.90;;;;;;5071032;28;20215;-67
2023/09/29 02:36:31;;;;;;;26.27;25.38;;;17.10;99.90;;;;;;5070725;28;20237;-68
2023/09/29 02:38:58;;;;;;;25.08;24.20;;;17.10;99.90;;;;;;5070438;28;20216;-65
2023/09/29 02:41:25;;;;;;;25.90;25.00;;;17.10;99.90;;;;;;5071041;28;20295;-66
2023/09/29 02:43:52;;;;;;;25.05;24.15;;;17.10;99.90;;;;;;5068483;28;20297;-65
2023/09/29 02:46:20;;;;;;;25.85;24.95;;;17.10;99.90;;;;;;5071434;28;20203;-67
2023/09/29 02:48:48;;;;;;;25.05;24.15;;;17.10;99.90;;;;;;5071580;28;20661;-67
2023/09/29 02:51:18;;;;;;;27.25;26.25;;;17.00;99.90;;;;;;5071486;28;20238;-66
2023/09/29 02:53:48;;;;;;;25.13;24.23;;;17.00;99.90;;;;;;5071460;28;20215;-68
2023/09/29 02:56:16;;;;;;;24.90;24.02;;;17.00;99.90;;;;;;5070888;28;20284;-68
2023/09/29 02:58:43;;;;;;;20.88;20.17;;;17.00;99.90;;;;;;5070872;28;20594;-69
2023/09/29 03:01:11;;;;;;;26.15;25.25;;;17.10;99.90;;;;;;5071314;28;20233;-66
2023/09/29 03:03:43;;;;;;;27.13;26.23;;;17.10;99.90;;;;;;5076136;28;20207;-66
2023/09/29 03:06:12;;;;;;;25.17;24.27;;;17.10;99.90;;;;;;5072986;28;20213;-69
2023/09/29 03:08:41;;;;;;;24.48;23.63;;;17.10;99.90;;;;;;5074302;28;20223;-69
2023/09/29 03:11:09;;;;;;;24.55;23.63;;;17.20;99.90;;;;;;5076396;28;20224;-67
2023/09/29 03:13:37;;;;;;;26.77;25.88;;;17.10;99.90;;;;;;5080438;28;20264;-68
2023/09/29 03:16:04;;;;;;;24.38;23.52;;;17.10;99.90;;;;;;5086561;28;20242;-67
2023/09/29 03:18:31;;;;;;;24.50;23.65;;;17.10;99.90;;;;;;5085816;28;20598;-68
2023/09/29 03:20:58;;;;;;;24.55;23.73;;;17.10;99.90;;;;;;5089183;28;20227;-68
2023/09/29 03:23:26;;;;;;;23.73;22.92;;;17.10;99.90;;;;;;5087797;28;20241;-67
2023/09/29 03:25:55;;;;;;;25.58;24.67;;;17.10;99.90;;;;;;5075651;28;20257;-67
2023/09/29 03:28:22;;;;;;;24.63;23.75;;;17.20;99.90;;;;;;5071059;28;20213;-65
2023/09/29 03:30:49;;;;;;;24.23;23.42;;;17.00;99.90;;;;;;5070397;28;20778;-68
2023/09/29 03:33:16;;;;;;;26.05;25.15;;;17.20;99.90;;;;;;5070595;28;20677;-67
2023/09/29 03:35:43;;;;;;;25.95;24.95;;;17.10;99.90;;;;;;5081174;28;20309;-66
2023/09/29 03:38:10;;;;;;;26.05;25.15;;;17.10;99.90;;;;;;5072953;28;20302;-67
2023/09/29 03:40:36;;;;;;;25.10;24.20;;;17.10;99.90;;;;;;5072279;28;20223;-67
2023/09/29 03:43:05;;;;;;;25.20;24.30;;;17.10;99.90;;;;;;5071361;28;20233;-67
2023/09/29 03:45:33;;;;;;;23.55;22.55;;;17.10;99.90;;;;;;5069928;28;20207;-67
2023/09/29 03:48:00;;;;;;;26.67;25.77;;;17.10;99.90;;;;;;5070752;28;20246;-66
2023/09/29 03:50:26;;;;;;;27.10;26.00;;;17.10;99.90;;;;;;5070812;28;20210;-66
2023/09/29 03:52:53;;;;;;;25.75;24.85;;;17.10;99.90;;;;;;5070716;28;20629;-67
2023/09/29 03:55:20;;;;;;;27.17;26.23;;;17.10;99.90;;;;;;5070506;28;20229;-66
2023/09/29 03:57:48;;;;;;;26.48;25.58;;;17.20;99.90;;;;;;5070009;28;20326;-68
2023/09/29 04:00:18;;;;;;;26.08;25.17;;;17.20;99.90;;;;;;5069526;28;20218;-66
2023/09/29 04:02:45;;;;;;;27.55;26.60;;;17.20;99.90;;;;;;5070191;28;20211;-66
2023/09/29 04:05:12;;;;;;;26.58;25.67;;;17.20;99.90;;;;;;5070321;28;20300;-66
2023/09/29 04:07:40;;;;;;;25.88;24.98;;;17.20;99.90;;;;;;5069932;28;20199;-67
2023/09/29 04:10:08;;;;;;;26.10;25.20;;;17.30;99.90;;;;;;5069253;28;20218;-68
2023/09/29 04:12:35;;;;;;;28.30;27.30;;;17.30;99.90;;;;;;5070253;28;20238;-67
2023/09/29 04:15:02;;;;;;;25.08;24.17;;;17.30;99.90;;;;;;5070316;28;20217;-67
2023/09/29 04:17:30;;;;;;;28.27;27.20;;;17.30;99.90;;;;;;5069779;28;20226;-68
2023/09/29 04:19:57;;;;;;;26.83;25.92;;;17.30;99.90;;;;;;5070043;28;20214;-68
2023/09/29 04:22:24;;;;;;;26.85;25.90;;;17.40;99.90;;;;;;5071138;28;20235;-67
2023/09/29 04:24:54;;;;;;;24.87;23.97;;;17.40;99.90;;;;;;5073114;28;20198;-65
2023/09/29 04:27:21;;;;;;;26.52;25.52;;;17.40;99.90;;;;;;5073926;28;20203;-67
2023/09/29 04:29:48;;;;;;;26.40;25.50;;;17.30;99.90;;;;;;5073556;28;20218;-66
2023/09/29 04:32:14;;;;;;;25.20;24.30;;;17.40;99.90;;;;;;5074984;28;20284;-67
2023/09/29 04:34:43;;;;;;;26.33;25.42;;;17.30;99.90;;;;;;5072130;28;20214;-66
2023/09/29 04:37:10;;;;;;;28.13;27.13;;;17.40;99.90;;;;;;5076817;28;20699;-64
2023/09/29 04:39:37;;;;;;;27.27;26.27;;;17.40;99.90;;;;;;5069905;28;20286;-67
2023/09/29 04:42:05;;;;;;;25.58;24.67;;;17.40;99.90;;;;;;5056113;28;20232;-67
2023/09/29 04:44:32;;;;;;;28.33;27.33;;;17.50;99.90;;;;;;5054140;28;20234;-67
2023/09/29 04:46:58;;;;;;;30.70;29.60;;;17.50;99.90;;;;;;5053517;28;20211;-67
2023/09/29 04:49:25;;;;;;;28.03;27.07;;;17.50;99.90;;;;;;5062802;28;20286;-68
2023/09/29 04:51:53;;;;;;;31.60;30.50;;;17.50;99.90;;;;;;5073854;28;20227;-67
2023/09/29 04:54:20;;;;;;;27.10;26.20;;;17.50;99.90;;;;;;5073835;28;20211;-67
2023/09/29 04:56:47;;;;;;;27.50;26.55;;;17.50;99.90;;;;;;5073572;28;20235;-65
2023/09/29 04:59:14;;;;;;;22.23;21.45;;;17.50;99.90;;;;;;5073001;28;20215;-66
2023/09/29 05:01:40;;;;;;;21.15;20.45;;;17.50;99.90;;;;;;5073842;28;20787;-67
2023/09/29 05:04:07;;;;;;;26.63;25.70;;;17.50;99.90;;;;;;5073651;28;20218;-66
2023/09/29 05:06:34;;;;;;;25.90;25.00;;;17.50;99.90;;;;;;5073156;28;20203;-67
2023/09/29 05:09:03;;;;;;;28.38;27.30;;;17.50;99.90;;;;;;5077070;28;20259;-67
2023/09/29 05:11:30;;;;;;;24.23;23.42;;;17.50;99.90;;;;;;5076417;28;20235;-67
2023/09/29 05:13:56;;;;;;;28.92;27.83;;;17.60;99.90;;;;;;5072295;28;20211;-68
2023/09/29 05:16:24;;;;;;;24.27;23.37;;;17.50;99.90;;;;;;5073448;28;20229;-66
2023/09/29 05:18:53;;;;;;;28.10;27.13;;;17.60;99.90;;;;;;5073049;28;20772;-65
2023/09/29 05:21:20;;;;;;;26.40;25.50;;;17.60;99.90;;;;;;5069781;28;20333;-66
2023/09/29 05:23:47;;;;;;;29.40;28.33;;;17.50;99.90;;;;;;5073491;28;20211;-66
2023/09/29 05:26:15;;;;;;;24.77;23.87;;;17.50;99.90;;;;;;5062326;28;20204;-66
2023/09/29 05:28:42;;;;;;;29.70;28.60;;;17.60;99.90;;;;;;5065051;28;20231;-66
2023/09/29 05:31:09;;;;;;;21.33;20.57;;;17.60;99.90;;;;;;5074410;28;20219;-67
2023/09/29 05:33:36;;;;;;;22.45;21.63;;;17.60;99.90;;;;;;5073957;28;20303;-67
2023/09/29 05:36:04;;;;;;;30.70;29.63;;;17.60;99.90;;;;;;5073327;28;20588;-66
2023/09/29 05:38:31;;;;;;;26.88;25.98;;;17.60;99.90;;;;;;5061180;28;20210;-66
2023/09/29 05:40:58;;;;;;;24.67;23.77;;;17.50;99.90;;;;;;5072534;28;20856;-66
2023/09/29 05:43:27;;;;;;;33.13;31.95;;;17.50;99.90;;;;;;5073243;28;20203;-66
2023/09/29 05:45:53;;;;;;;27.50;26.50;;;17.50;99.90;;;;;;5056142;28;20203;-65
2023/09/29 05:48:20;;;;;;;34.80;33.50;;;17.50;99.90;;;;;;5056701;28;20212;-67
2023/09/29 05:50:47;;;;;;;29.07;28.07;;;17.50;99.90;;;;;;5072281;28;20318;-68
2023/09/29 05:53:14;;;;;;;19.60;18.90;;;17.60;99.90;;;;;;5072481;28;20215;-68
2023/09/29 05:55:41;;;;;;;24.02;23.23;;;17.60;99.90;;;;;;5073054;28;20584;-67
2023/09/29 05:58:08;;;;;;;22.35;21.55;;;17.60;99.90;;;;;;5072339;28;20243;-65
2023/09/29 06:00:36;;;;;;;24.33;23.48;;;17.60;99.90;;;;;;5056858;28;20710;-65
2023/09/29 06:03:03;;;;;;;26.07;25.10;;;17.60;99.90;;;;;;5053962;28;20288;-65
2023/09/29 06:05:31;;;;;;;20.30;19.58;;;17.60;99.90;;;;;;5049643;28;20208;-66
2023/09/29 06:07:58;;;;;;;20.05;19.35;;;17.60;99.90;;;;;;5067355;28;20577;-67
2023/09/29 06:10:25;;;;;;;20.67;19.97;;;17.70;99.90;;;;;;5069948;28;20213;-67
2023/09/29 06:12:51;;;;;;;19.97;19.23;;;17.70;99.90;;;;;;5071237;28;20211;-65
2023/09/29 06:15:19;;;;;;;19.73;19.02;;;17.60;99.90;;;;;;5070622;28;20211;-66
2023/09/29 06:17:47;;;;;;;26.85;25.85;;;17.60;99.90;;;;;;5070950;28;20227;-67
2023/09/29 06:20:14;;;;;;;23.23;22.33;;;17.70;99.90;;;;;;5064455;28;20203;-66
2023/09/29 06:22:41;;;;;;;25.73;24.75;;;17.70;99.90;;;;;;5072906;28;20199;-67
2023/09/29 06:25:08;;;;;;;24.37;23.47;;;17.70;99.90;;;;;;5065684;28;20229;-67
2023/09/29 06:27:34;;;;;;;25.30;24.40;;;17.70;99.90;;;;;;5071554;28;20205;-66
2023/09/29 06:30:02;;;;;;;22.17;21.38;;;17.80;99.90;;;;;;5068091;28;20656;-65
2023/09/29 06:32:29;;;;;;;31.23;30.08;;;17.80;99.90;;;;;;5067881;28;20219;-68
2023/09/29 06:34:57;;;;;;;21.70;20.95;;;17.90;99.90;;;;;;5071989;28;20207;-67
2023/09/29 06:37:24;;;;;;;20.25;19.55;;;17.90;99.90;;;;;;5070825;28;20233;-67
2023/09/29 06:39:51;;;;;;;21.38;20.58;;;18.00;99.90;;;;;;5072672;28;20728;-67
2023/09/29 06:42:18;;;;;;;19.63;18.92;;;18.10;99.90;;;;;;5070488;28;20306;-66
2023/09/29 06:44:44;;;;;;;23.90;23.00;;;18.20;99.90;;;;;;5073025;28;20207;-66
2023/09/29 06:47:11;;;;;;;20.02;19.33;;;18.40;99.90;;;;;;5060052;28;20298;-66
2023/09/29 06:49:38;;;;;;;19.47;18.77;;;18.40;99.90;;;;;;5070628;28;20199;-66
2023/09/29 06:52:06;;;;;;;18.95;18.25;;;18.50;99.90;;;;;;5072567;28;20748;-66
2023/09/29 06:54:33;;;;;;;19.55;18.85;;;18.50;99.90;;;;;;5072580;28;20580;-66
2023/09/29 06:57:00;;;;;;;19.25;18.55;;;18.70;99.90;;;;;;5072463;28;20229;-67
2023/09/29 06:59:27;;;;;;;31.70;30.42;;;18.90;99.90;;;;;;5071660;28;20295;-67
2023/09/29 07:01:54;;;;;;;19.20;18.50;;;18.70;99.90;;;;;;5071676;28;20318;-66
2023/09/29 07:04:22;;;;;;;18.40;17.80;;;18.80;99.90;;;;;;5071689;28;20234;-67
2023/09/29 07:06:49;;;;;;;17.80;17.20;;;18.80;99.90;;;;;;5071353;28;20203;-67
2023/09/29 07:09:18;;;;;;;19.00;18.30;;;18.80;99.90;;;;;;5066890;28;20191;-68
2023/09/29 07:11:44;;;;;;;18.08;17.48;;;18.80;99.90;;;;;;5069977;28;20615;-66
2023/09/29 07:14:11;;;;;;;19.60;18.80;;;18.90;99.90;;;;;;5071689;28;20306;-65
2023/09/29 07:16:39;;;;;;;19.33;18.63;;;19.00;99.90;;;;;;5069953;28;20215;-66
2023/09/29 07:19:06;;;;;;;19.87;19.17;;;18.90;99.90;;;;;;5072799;28;20670;-66
2023/09/29 07:21:33;;;;;;;19.50;18.80;;;18.90;99.90;;;;;;5072128;28;20463;-66
2023/09/29 07:24:00;;;;;;;19.97;19.27;;;19.00;99.90;;;;;;5068661;28;20218;-66
2023/09/29 07:26:28;;;;;;;19.70;19.00;;;19.10;99.90;;;;;;5065749;28;20255;-67
2023/09/29 07:29:00;;;;;;;19.77;19.08;;;19.10;99.90;;;;;;5071073;28;20187;-67
2023/09/29 07:31:34;;;;;;;19.90;19.10;;;19.30;99.90;;;;;;5063173;28;20250;-67
2023/09/29 07:34:01;;;;;;;20.05;19.35;;;19.30;99.90;;;;;;5068762;28;20313;-67
2023/09/29 07:36:30;;;;;;;19.03;18.33;;;19.40;99.90;;;;;;5067232;28;20215;-66
2023/09/29 07:38:57;;;;;;;20.42;19.73;;;19.50;99.90;;;;;;5070777;28;20239;-66
2023/09/29 07:41:24;;;;;;;18.83;18.13;;;19.50;99.90;;;;;;5066266;28;20219;-66
2023/09/29 07:43:52;;;;;;;19.77;18.98;;;19.50;99.90;;;;;;5070929;28;20248;-65
2023/09/29 07:46:19;;;;;;;22.47;21.67;;;19.70;99.90;;;;;;5066983;28;20203;-68
2023/09/29 07:48:46;;;;;;;20.75;20.05;;;19.80;99.90;;;;;;5070811;28;20210;-67
2023/09/29 07:51:13;;;;;;;19.80;19.10;;;19.90;99.90;;;;;;5070762;28;20242;-67
2023/09/29 07:53:40;;;;;;;20.08;19.38;;;20.10;99.90;;;;;;5071013;28;20207;-66
2023/09/29 07:56:07;;;;;;;19.47;18.77;;;20.30;99.90;;;;;;5070812;28;20574;-67
2023/09/29 07:58:33;;;;;;;19.75;19.05;;;20.50;99.90;;;;;;5070183;28;20721;-67
2023/09/29 08:01:02;;;;;;;18.02;17.42;;;20.70;99.90;;;;;;5070554;28;20227;-65
2023/09/29 08:03:29;;;;;;;17.42;16.83;;;20.90;99.90;;;;;;5067003;28;20215;-68
2023/09/29 08:05:55;;;;;;;19.55;18.85;;;21.20;99.90;;;;;;5070608;28;20203;-68
2023/09/29 08:08:24;;;;;;;17.30;16.70;;;21.30;99.90;;;;;;5069389;28;20203;-67
2023/09/29 08:10:51;;;;;;;19.23;18.52;;;21.60;99.90;;;;;;5069728;28;20230;-66
2023/09/29 08:13:18;;;;;;;23.30;22.50;;;21.80;99.90;;;;;;5066973;28;20203;-67
2023/09/29 08:15:45;;;;;;;21.08;20.38;;;22.10;99.90;;;;;;5064645;28;20207;-67
2023/09/29 08:18:14;;;;;;;20.08;19.38;;;22.40;99.90;;;;;;5070634;28;20223;-66
2023/09/29 08:20:41;;;;;;;20.88;20.13;;;22.70;99.90;;;;;;5065056;28;20696;-67
2023/09/29 08:23:08;;;;;;;19.27;18.60;;;22.90;99.90;;;;;;5068768;28;20217;-65
2023/09/29 08:25:35;;;;;;;19.05;18.40;;;23.20;99.90;;;;;;5068274;28;20221;-65
2023/09/29 08:28:02;;;;;;;19.08;18.40;;;23.30;99.90;;;;;;5069043;28;20225;-67
2023/09/29 08:30:29;;;;;;;18.85;18.15;;;23.60;99.90;;;;;;5068583;28;20688;-67
2023/09/29 08:32:56;;;;;;;19.40;18.70;;;23.80;99.90;;;;;;5070981;28;20400;-67
2023/09/29 08:35:27;;;;;;;19.45;18.75;;;23.90;99.90;;;;;;5062919;28;20209;-67
2023/09/29 08:37:54;;;;;;;19.75;19.05;;;24.20;99.90;;;;;;5082570;28;20226;-66
2023/09/29 08:40:21;;;;;;;17.50;16.90;;;24.40;99.90;;;;;;5084649;28;20208;-67
2023/09/29 08:42:50;;;;;;;19.55;18.85;;;24.60;99.90;;;;;;5080274;28;20207;-66
2023/09/29 08:45:17;;;;;;;19.80;19.10;;;24.70;99.90;;;;;;5073763;28;20222;-65
2023/09/29 08:47:50;;;;;;;18.38;17.77;;;24.90;99.90;;;;;;5069173;28;20202;-66
2023/09/29 08:50:18;;;;;;;19.70;18.95;;;25.00;99.90;;;;;;5070560;28;20230;-66
2023/09/29 08:52:49;;;;;;;18.73;18.02;;;25.10;99.90;;;;;;5068595;28;20630;-67
2023/09/29 08:55:17;;;;;;;19.17;18.48;;;25.30;99.90;;;;;;5067018;28;20223;-66
2023/09/29 08:57:45;;;;;;;18.80;18.10;;;25.50;99.90;;;;;;5066669;28;20708;-66
2023/09/29 09:00:13;;;;;;;19.17;18.48;;;25.50;99.90;;;;;;5069275;28;20208;-66
2023/09/29 09:02:42;;;;;;;18.50;17.83;;;25.60;99.90;;;;;;5066505;28;20276;-66
2023/09/29 09:05:11;;;;;;;18.92;18.23;;;25.80;99.90;;;;;;5069620;28;20261;-66
2023/09/29 09:07:39;;;;;;;17.50;16.90;;;25.90;99.90;;;;;;5067146;28;20682;-66
2023/09/29 09:10:09;;;;;;;17.92;17.27;;;26.00;99.90;;;;;;5066610;28;20230;-67
2023/09/29 09:12:37;;;;;;;17.70;17.10;;;26.10;99.90;;;;;;5071105;28;20262;-66
2023/09/29 09:15:04;;;;;;;17.30;16.70;;;26.20;99.90;;;;;;5072744;28;20202;-66
2023/09/29 09:17:31;;;;;;;17.52;16.92;;;26.30;99.90;;;;;;5071333;28;20219;-66
2023/09/29 09:19:58;;;;;;;16.98;16.38;;;26.40;99.90;;;;;;5073147;28;20199;-65
2023/09/29 09:22:31;;;;;;;17.52;16.90;;;26.40;99.90;;;;;;5072144;28;20219;-66
2023/09/29 09:24:59;;;;;;;17.52;16.92;;;26.60;99.90;;;;;;5069700;28;20252;-66
2023/09/29 09:27:36;;;;;;;17.20;16.50;;;26.80;99.90;;;;;;5074583;28;20207;-66
2023/09/29 09:30:04;;;;;;;17.50;16.90;;;27.00;99.90;;;;;;5070965;28;20231;-65
2023/09/29 09:32:31;;;;;;;17.63;17.02;;;27.00;99.90;;;;;;5073758;28;20226;-65
2023/09/29 09:34:59;;;;;;;19.38;18.67;;;27.10;99.90;;;;;;5070599;28;20496;-66
2023/09/29 09:37:26;;;;;;;16.48;15.85;;;27.20;99.90;;;;;;5068764;28;20199;-65
2023/09/29 09:39:55;;;;;;;17.45;16.75;;;27.20;99.90;;;;;;5076264;28;20207;-66
2023/09/29 09:42:27;;;;;;;17.05;16.45;;;27.40;99.90;;;;;;5080634;28;20233;-66
2023/09/29 09:44:56;;;;;;;18.17;17.58;;;27.50;99.90;;;;;;5082115;28;20302;-65
2023/09/29 09:47:26;;;;;;;18.63;17.92;;;27.40;99.90;;;;;;5083799;28;20196;-67
2023/09/29 09:49:56;;;;;;;19.25;18.55;;;27.50;99.90;;;;;;5077853;28;20273;-66
2023/09/29 09:52:26;;;;;;;18.52;17.92;;;27.50;99.90;;;;;;5072897;28;20653;-66
2023/09/29 09:54:54;;;;;;;19.13;18.42;;;27.60;99.90;;;;;;5073246;28;20198;-66
2023/09/29 09:57:25;;;;;;;18.65;17.95;;;27.70;99.90;;;;;;5071453;28;20200;-66
2023/09/29 09:59:55;;;;;;;17.25;16.65;;;27.70;99.90;;;;;;5074589;28;20195;-66
2023/09/29 10:02:23;;;;;;;18.13;17.52;;;27.70;99.90;;;;;;5070831;28;20242;-66
2023/09/29 10:04:51;;;;;;;18.88;18.17;;;27.70;99.90;;;;;;5071785;28;20209;-67
2023/09/29 10:07:20;;;;;;;18.77;18.10;;;27.70;99.90;;;;;;5068667;28;20296;-66
2023/09/29 10:09:49;;;;;;;18.10;17.40;;;27.80;99.90;;;;;;5072883;28;20198;-66
2023/09/29 10:12:27;;;;;;;18.10;17.45;;;27.80;99.90;;;;;;5071294;28;20219;-66
2023/09/29 10:14:56;;;;;;;17.13;16.42;;;27.90;99.90;;;;;;5073083;28;20234;-66
2023/09/29 10:17:23;;;;;;;17.80;17.20;;;27.90;99.90;;;;;;5072819;28;20228;-66
2023/09/29 10:19:54;;;;;;;18.05;17.38;;;28.00;99.90;;;;;;5072007;28;20223;-66
2023/09/29 10:22:25;;;;;;;15.95;15.35;;;28.10;99.90;;;;;;5071442;28;20219;-66
2023/09/29 10:24:56;;;;;;;16.60;16.00;;;28.00;99.90;;;;;;5072369;28;20684;-66
2023/09/29 10:27:32;;;;;;;16.85;16.25;;;28.10;99.90;;;;;;5072180;28;20195;-66
2023/09/29 10:30:17;;;;;;;16.33;15.73;;;28.10;99.90;;;;;;5070552;28;20191;-66
2023/09/29 10:32:47;;;;;;;17.65;17.05;;;28.10;99.90;;;;;;5072263;28;20215;-66
2023/09/29 10:35:18;;;;;;;18.27;17.63;;;28.20;99.90;;;;;;5073194;28;20199;-65
2023/09/29 10:37:49;;;;;;;16.75;16.15;;;28.20;99.90;;;;;;5068592;28;20211;-65
2023/09/29 10:40:23;;;;;;;17.90;17.30;;;28.30;99.90;;;;;;5068541;28;20203;-66
2023/09/29 10:42:54;;;;;;;17.95;17.35;;;28.30;99.90;;;;;;5069129;28;20294;-66
2023/09/29 10:45:30;;;;;;;18.02;17.42;;;28.40;99.90;;;;;;5068247;28;20211;-66
2023/09/29 10:48:02;;;;;;;17.33;16.73;;;28.40;99.90;;;;;;5069900;28;20620;-66
2023/09/29 10:50:29;;;;;;;16.95;16.35;;;28.50;99.90;;;;;;5068022;28;20203;-66
2023/09/29 10:52:56;;;;;;;16.08;15.48;;;28.60;99.90;;;;;;5068499;28;20219;-66
2023/09/29 10:55:23;;;;;;;17.65;17.05;;;28.60;99.90;;;;;;5071740;28;20207;-66
2023/09/29 10:57:51;;;;;;;18.38;17.67;;;28.50;99.90;;;;;;5067232;28;20389;-66
2023/09/29 11:00:19;;;;;;;16.58;15.98;;;28.40;99.90;;;;;;5067530;28;20213;-66
2023/09/29 11:02:49;;;;;;;17.05;16.45;;;28.40;99.90;;;;;;5075483;28;20203;-65
2023/09/29 11:05:17;;;;;;;16.65;16.05;;;28.40;99.90;;;;;;5071354;28;20219;-67
2023/09/29 11:07:46;;;;;;;16.58;15.98;;;28.40;99.90;;;;;;5069295;28;20666;-66
2023/09/29 11:10:14;;;;;;;16.70;16.10;;;28.50;99.90;;;;;;5070112;28;20203;-65
2023/09/29 11:12:45;;;;;;;18.02;17.33;;;28.70;99.90;;;;;;5068501;28;20211;-65
2023/09/29 11:15:13;;;;;;;15.68;15.07;;;28.90;99.90;;;;;;5067403;28;20203;-66
2023/09/29 11:17:45;;;;;;;15.60;15.00;;;28.70;99.90;;;;;;5070825;28;20608;-67
2023/09/29 11:20:16;;;;;;;15.18;14.68;;;28.70;99.90;;;;;;5069676;28;20798;-65
2023/09/29 11:22:45;;;;;;;16.95;16.35;;;28.60;99.90;;;;;;5069542;28;20211;-66
2023/09/29 11:25:21;;;;;;;15.52;14.93;;;28.70;99.90;;;;;;5071284;28;20342;-66
2023/09/29 11:27:52;;;;;;;15.38;14.77;;;28.70;99.90;;;;;;5066610;28;20211;-67
2023/09/29 11:30:20;;;;;;;16.67;15.95;;;28.90;99.90;;;;;;5071566;28;20263;-65
2023/09/29 11:32:47;;;;;;;17.38;16.77;;;28.90;99.90;;;;;;5081533;28;20344;-67
2023/09/29 11:35:16;;;;;;;17.23;16.63;;;28.80;99.90;;;;;;5079633;28;20201;-65
2023/09/29 11:37:44;;;;;;;18.17;17.48;;;28.90;99.90;;;;;;5077610;28;20215;-65
2023/09/29 11:40:12;;;;;;;17.85;17.25;;;28.90;99.90;;;;;;5073611;28;20219;-67
2023/09/29 11:42:39;;;;;;;16.40;15.80;;;29.00;99.90;;;;;;5074584;28;20230;-66
2023/09/29 11:45:09;;;;;;;15.25;14.75;;;29.10;99.90;;;;;;5067838;28;20448;-65
2023/09/29 11:47:36;;;;;;;16.40;15.80;;;29.30;99.90;;;;;;5067856;28;20206;-66
2023/09/29 11:50:04;;;;;;;17.02;16.38;;;29.30;99.90;;;;;;5071985;28;20206;-65
2023/09/29 11:52:34;;;;;;;16.83;16.23;;;29.40;99.90;;;;;;5071247;28;20709;-65
2023/09/29 11:55:01;;;;;;;16.73;16.02;;;29.40;99.90;;;;;;5071527;28;20211;-65
2023/09/29 11:57:27;;;;;;;17.40;16.80;;;29.30;99.90;;;;;;5069841;28;20199;-65
2023/09/29 11:59:54;;;;;;;18.05;17.25;;;29.30;99.90;;;;;;5067718;28;20223;-65
2023/09/29 12:02:22;;;;;;;16.83;16.23;;;29.20;99.90;;;;;;5072000;28;20227;-65
2023/09/29 12:04:49;;;;;;;16.38;15.77;;;29.30;99.90;;;;;;5070246;28;20628;-65
2023/09/29 12:07:16;;;;;;;16.65;16.00;;;29.40;99.90;;;;;;5067200;28;20510;-66
2023/09/29 12:09:44;;;;;;;16.45;15.85;;;29.50;99.90;;;;;;5068665;28;20203;-66
2023/09/29 12:12:12;;;;;;;17.33;16.73;;;29.50;99.90;;;;;;5069697;28;20310;-65
2023/09/29 12:14:39;;;;;;;20.10;19.30;;;29.60;99.90;;;;;;5063358;28;20208;-66
2023/09/29 12:17:06;;;;;;;17.52;16.92;;;29.50;99.90;;;;;;5067559;28;20218;-65
2023/09/29 12:19:33;;;;;;;16.98;16.33;;;29.40;99.90;;;;;;5069441;28;20227;-65
2023/09/29 12:22:00;;;;;;;17.65;17.02;;;29.50;99.90;;;;;;5070561;28;20257;-66
2023/09/29 12:24:27;;;;;;;17.83;17.10;;;29.40;99.90;;;;;;5072460;28;20585;-66
2023/09/29 12:26:55;;;;;;;17.08;16.48;;;29.30;99.90;;;;;;5067765;28;20211;-64
2023/09/29 12:29:22;;;;;;;17.60;16.90;;;29.10;99.90;;;;;;5070637;28;20285;-66
2023/09/29 12:31:50;;;;;;;17.40;16.80;;;29.00;99.90;;;;;;5069952;28;20290;-65